Time;durP1;ratioP1;P1;durP2;ratioP2;P2;SDS_P1;SDS_P2;PMS_P1;PMS_P2;Temp;Humidity;BMP_temperature;BMP_pressure;BME280_temperature;BME280_humidity;BME280_pressure;Samples;Min_cycle;Max_cycle;Signal;HPM_P1;HPM_P2
2021/08/15 00:01:59;;;;;;;;;;;;;;;32.63;35.58;100254.34;4314812;33;34314;-86
2021/08/15 00:04:28;;;;;;;;;;;;;;;32.86;35.13;100250.84;4315067;33;34352;-86
2021/08/15 00:06:55;;;;;;;;;;;;;;;32.88;35.15;100246.12;4303265;33;35109;-87
2021/08/15 00:09:22;;;;;;;;;;;;;;;33.34;34.33;100238.97;4314824;33;32948;-86
2021/08/15 00:11:50;;;;;;;;;;;;;;;32.68;35.61;100244.88;4314558;33;35116;-86
2021/08/15 00:14:17;;;;;;;;;;;;;;;32.44;36.05;100246.72;4314547;33;34292;-87
2021/08/15 00:16:46;;;;;;;;;;;;;;;32.27;36.36;100244.13;4302558;33;35939;-87
2021/08/15 00:19:14;;;;;;;;;;;;;;;32.45;36.03;100237.63;4314839;33;34866;-87
2021/08/15 00:21:42;;;;;;;;;;;;;;;32.90;35.07;100233.25;4304955;33;34972;-86
2021/08/15 00:24:10;;;;;;;;;;;;;;;32.96;34.91;100240.63;4304256;33;34883;-86
2021/08/15 00:26:38;;;;;;;;;;;;;;;32.74;35.27;100234.25;4315414;33;33880;-86
2021/08/15 00:29:07;;;;;;;;;;;;;;;32.75;35.27;100235.09;4315227;33;33354;-86
2021/08/15 00:31:34;;;;;;;;;;;;;;;32.94;34.97;100228.34;4303312;33;33329;-86
2021/08/15 00:34:02;;;;;;;;;;;;;;;33.13;34.53;100227.84;4302688;33;37351;-87
2021/08/15 00:36:30;;;;;;;;;;;;;;;32.95;34.82;100221.94;4315001;33;34789;-86
2021/08/15 00:38:59;;;;;;;;;;;;;;;32.53;35.58;100221.38;4315015;33;33940;-87
2021/08/15 00:41:27;;;;;;;;;;;;;;;32.42;35.86;100227.19;4300550;33;34202;-86
2021/08/15 00:43:54;;;;;;;;;;;;;;;32.63;35.35;100224.69;4314968;33;36236;-87
2021/08/15 00:46:22;;;;;;;;;;;;;;;32.66;35.25;100223.47;4302664;33;34423;-87
2021/08/15 00:48:50;;;;;;;;;;;;;;;32.83;34.95;100228.75;4314826;33;32508;-86
2021/08/15 00:51:17;;;;;;;;;;;;;;;32.72;35.19;100227.34;4315691;33;34452;-87
2021/08/15 00:53:45;;;;;;;;;;;;;;;32.71;35.17;100231.91;4302415;33;33454;-87
2021/08/15 00:56:12;;;;;;;;;;;;;;;32.38;35.82;100224.00;4317139;33;34911;-86
2021/08/15 00:58:40;;;;;;;;;;;;;;;32.57;35.50;100225.38;4304251;33;33852;-86
2021/08/15 01:01:08;;;;;;;;;;;;;;;32.54;35.47;100224.94;4304091;33;35709;-87
2021/08/15 01:03:37;;;;;;;;;;;;;;;31.81;36.87;100219.75;4304349;33;33364;-86
2021/08/15 01:06:05;;;;;;;;;;;;;;;31.70;37.16;100215.56;4303716;33;35038;-87
2021/08/15 01:08:32;;;;;;;;;;;;;;;32.44;35.70;100214.38;4304149;33;35124;-85
2021/08/15 01:11:04;;;;;;;;;;;;;;;32.29;35.91;100217.00;4316131;33;33936;-86
2021/08/15 01:13:32;;;;;;;;;;;;;;;32.50;35.53;100207.44;4316205;33;34360;-86
2021/08/15 01:16:03;;;;;;;;;;;;;;;32.61;35.26;100204.31;4315868;33;35157;-87
2021/08/15 01:18:32;;;;;;;;;;;;;;;32.19;36.00;100205.59;4316547;33;33519;-86
2021/08/15 01:20:59;;;;;;;;;;;;;;;32.41;35.58;100203.94;4303942;33;35102;-87
2021/08/15 01:23:27;;;;;;;;;;;;;;;31.45;37.44;100202.16;4316166;33;34960;-86
2021/08/15 01:25:54;;;;;;;;;;;;;;;32.28;35.78;100200.00;4315986;33;34283;-86
2021/08/15 01:28:22;;;;;;;;;;;;;;;32.61;35.05;100197.03;4303905;33;35174;-87
2021/08/15 01:30:49;;;;;;;;;;;;;;;32.33;35.56;100196.75;4304032;33;33226;-86
2021/08/15 01:33:24;;;;;;;;;;;;;;;32.44;35.34;100190.97;4303722;33;36200;-86
2021/08/15 01:35:52;;;;;;;;;;;;;;;32.54;35.13;100197.97;4315921;33;34872;-86
2021/08/15 01:38:21;;;;;;;;;;;;;;;32.69;34.83;100187.22;4315850;33;33730;-86
2021/08/15 01:40:49;;;;;;;;;;;;;;;32.32;35.57;100183.47;4298552;33;35231;-86
2021/08/15 01:43:16;;;;;;;;;;;;;;;31.83;36.58;100187.22;4310958;33;35040;-87
2021/08/15 01:45:44;;;;;;;;;;;;;;;32.33;35.51;100188.66;4304038;33;34836;-86
2021/08/15 01:48:11;;;;;;;;;;;;;;;32.17;35.70;100184.22;4303784;33;35446;-87
2021/08/15 01:50:39;;;;;;;;;;;;;;;32.36;35.25;100184.78;4304154;33;36155;-86
2021/08/15 01:53:08;;;;;;;;;;;;;;;31.95;35.96;100180.44;4303893;33;35994;-86
2021/08/15 01:55:39;;;;;;;;;;;;;;;31.47;36.87;100178.59;4316148;33;34396;-86
2021/08/15 01:58:08;;;;;;;;;;;;;;;31.85;36.11;100177.97;4304944;33;33663;-86
2021/08/15 02:00:36;;;;;;;;;;;;;;;31.50;36.75;100187.31;4317936;33;34588;-85
2021/08/15 02:03:04;;;;;;;;;;;;;;;31.88;35.88;100183.00;4316850;33;36277;-86
2021/08/15 02:05:32;;;;;;;;;;;;;;;31.48;36.56;100176.75;4304799;33;33269;-86
2021/08/15 02:08:00;;;;;;;;;;;;;;;30.95;37.58;100177.19;4316509;33;34188;-86
2021/08/15 02:10:28;;;;;;;;;;;;;;;31.32;36.88;100183.00;4316108;33;34480;-86
2021/08/15 02:12:56;;;;;;;;;;;;;;;31.32;36.84;100185.69;4304033;33;33717;-86
2021/08/15 02:15:23;;;;;;;;;;;;;;;30.66;38.46;100180.38;4303584;33;35094;-87
2021/08/15 02:17:53;;;;;;;;;;;;;;;30.34;39.34;100186.53;4303478;33;35227;-86
2021/08/15 02:20:21;;;;;;;;;;;;;;;30.62;38.70;100187.94;4315828;33;35603;-86
2021/08/15 02:22:48;;;;;;;;;;;;;;;31.01;37.94;100180.16;4316447;33;34911;-86
2021/08/15 02:25:17;;;;;;;;;;;;;;;30.94;37.99;100177.31;4303787;33;35845;-87
2021/08/15 02:27:44;;;;;;;;;;;;;;;31.17;37.45;100185.56;4315824;33;33760;-86
2021/08/15 02:30:13;;;;;;;;;;;;;;;31.35;37.09;100195.28;4304132;33;35358;-86
2021/08/15 02:32:41;;;;;;;;;;;;;;;31.56;36.58;100190.16;4304031;33;36150;-86
2021/08/15 02:35:09;;;;;;;;;;;;;;;29.73;40.84;100186.66;4316249;33;35563;-86
2021/08/15 02:37:37;;;;;;;;;;;;;;;29.94;40.36;100183.56;4303783;33;33183;-86
2021/08/15 02:40:06;;;;;;;;;;;;;;;30.78;38.48;100183.56;4310781;33;34473;-86
2021/08/15 02:42:34;;;;;;;;;;;;;;;30.38;39.17;100188.75;4302679;33;35111;-87
2021/08/15 02:45:03;;;;;;;;;;;;;;;31.28;37.24;100182.50;4315939;33;33870;-86
2021/08/15 02:47:31;;;;;;;;;;;;;;;31.16;37.32;100183.06;4303273;33;34075;-86
2021/08/15 02:49:58;;;;;;;;;;;;;;;31.53;36.56;100181.62;4315442;33;34777;-86
2021/08/15 02:52:25;;;;;;;;;;;;;;;31.46;36.79;100178.78;4315722;33;35000;-86
2021/08/15 02:54:53;;;;;;;;;;;;;;;31.52;36.79;100177.25;4303518;33;33763;-86
2021/08/15 02:57:20;;;;;;;;;;;;;;;30.70;38.73;100175.50;4315518;33;33190;-86
2021/08/15 02:59:48;;;;;;;;;;;;;;;30.35;39.31;100172.91;4303541;33;34842;-86
2021/08/15 03:02:16;;;;;;;;;;;;;;;30.65;38.68;100178.69;4303347;33;35813;-86
2021/08/15 03:04:45;;;;;;;;;;;;;;;31.00;37.80;100171.28;4315432;33;34430;-86
2021/08/15 03:07:13;;;;;;;;;;;;;;;31.32;36.97;100169.56;4303827;33;33857;-86
2021/08/15 03:09:41;;;;;;;;;;;;;;;31.20;37.22;100173.63;4315916;32;34528;-86
2021/08/15 03:12:09;;;;;;;;;;;;;;;31.09;37.51;100169.44;4315740;33;33161;-86
2021/08/15 03:14:38;;;;;;;;;;;;;;;31.53;36.58;100174.38;4303515;33;35803;-86
2021/08/15 03:17:06;;;;;;;;;;;;;;;31.17;37.33;100172.13;4314519;33;33448;-87
2021/08/15 03:19:34;;;;;;;;;;;;;;;31.14;37.32;100180.53;4315020;33;32910;-86
2021/08/15 03:22:02;;;;;;;;;;;;;;;30.58;38.45;100170.47;4303446;33;34869;-87
2021/08/15 03:24:30;;;;;;;;;;;;;;;30.99;37.57;100169.59;4303384;33;35312;-86
2021/08/15 03:26:58;;;;;;;;;;;;;;;30.96;37.54;100176.13;4315492;33;33172;-87
2021/08/15 03:29:26;;;;;;;;;;;;;;;30.86;37.81;100174.66;4315214;33;33819;-86
2021/08/15 03:31:54;;;;;;;;;;;;;;;30.84;37.90;100177.50;4315526;33;34414;-86
2021/08/15 03:34:21;;;;;;;;;;;;;;;30.80;37.99;100178.84;4315550;33;35864;-86
2021/08/15 03:36:49;;;;;;;;;;;;;;;31.01;37.63;100172.97;4303336;33;33592;-87
2021/08/15 03:39:17;;;;;;;;;;;;;;;30.77;38.13;100182.72;4302397;33;34710;-86
2021/08/15 03:41:45;;;;;;;;;;;;;;;30.85;37.95;100183.72;4312733;33;34952;-86
2021/08/15 03:44:14;;;;;;;;;;;;;;;31.18;37.23;100184.56;4300747;33;35074;-86
2021/08/15 03:46:42;;;;;;;;;;;;;;;31.20;37.12;100185.22;4312772;33;33437;-86
2021/08/15 03:49:10;;;;;;;;;;;;;;;31.07;37.37;100184.91;4301146;33;35030;-86
2021/08/15 03:51:37;;;;;;;;;;;;;;;31.30;36.90;100185.87;4314880;33;34438;-86
2021/08/15 03:54:05;;;;;;;;;;;;;;;30.50;38.55;100183.88;4316323;33;34988;-86
2021/08/15 03:56:32;;;;;;;;;;;;;;;30.64;38.31;100183.22;4302981;33;34469;-87
2021/08/15 03:58:59;;;;;;;;;;;;;;;29.80;40.19;100185.84;4314971;33;34735;-87
2021/08/15 04:01:27;;;;;;;;;;;;;;;30.25;39.24;100181.16;4302933;33;34858;-86
2021/08/15 04:03:55;;;;;;;;;;;;;;;30.75;38.23;100182.03;4302924;33;32889;-86
2021/08/15 04:06:22;;;;;;;;;;;;;;;30.77;38.27;100180.03;4314977;33;33254;-86
2021/08/15 04:08:50;;;;;;;;;;;;;;;30.67;38.48;100183.91;4314826;33;34605;-86
2021/08/15 04:11:18;;;;;;;;;;;;;;;29.93;39.99;100180.06;4314914;33;34213;-86
2021/08/15 04:13:46;;;;;;;;;;;;;;;30.04;39.81;100178.91;4314212;33;34471;-87
2021/08/15 04:16:15;;;;;;;;;;;;;;;30.24;39.39;100168.72;4314610;33;33469;-86
2021/08/15 04:18:42;;;;;;;;;;;;;;;29.32;41.49;100168.53;4314596;33;34693;-86
2021/08/15 04:21:10;;;;;;;;;;;;;;;30.08;39.79;100176.75;4314771;33;34832;-86
2021/08/15 04:23:37;;;;;;;;;;;;;;;30.10;39.64;100172.91;4314514;33;34265;-87
2021/08/15 04:26:05;;;;;;;;;;;;;;;30.30;39.24;100172.56;4302883;33;33529;-85
2021/08/15 04:28:32;;;;;;;;;;;;;;;29.77;40.39;100180.81;4302754;33;35554;-87
2021/08/15 04:31:00;;;;;;;;;;;;;;;30.61;38.57;100178.19;4304967;33;35168;-85
2021/08/15 04:33:28;;;;;;;;;;;;;;;30.93;37.97;100179.19;4317598;33;34595;-86
2021/08/15 04:35:55;;;;;;;;;;;;;;;31.03;37.87;100170.09;4305968;33;34197;-87
2021/08/15 04:38:24;;;;;;;;;;;;;;;30.41;39.17;100171.44;4305702;33;34251;-87
2021/08/15 04:40:52;;;;;;;;;;;;;;;29.80;40.45;100169.75;4303230;33;36220;-86
2021/08/15 04:43:20;;;;;;;;;;;;;;;29.99;40.17;100173.19;4314715;33;35677;-87
2021/08/15 04:45:47;;;;;;;;;;;;;;;31.07;37.96;100174.16;4316410;33;34907;-86
2021/08/15 04:48:16;;;;;;;;;;;;;;;31.28;37.54;100166.34;4316514;33;35415;-86
2021/08/15 04:50:43;;;;;;;;;;;;;;;30.67;38.96;100168.59;4304749;33;35768;-86
2021/08/15 04:53:11;;;;;;;;;;;;;;;30.91;38.47;100175.84;4316355;33;33398;-86
2021/08/15 04:55:39;;;;;;;;;;;;;;;31.13;38.10;100170.78;4316391;33;33298;-87
2021/08/15 04:58:06;;;;;;;;;;;;;;;31.42;37.61;100182.84;4303919;33;36497;-86
2021/08/15 05:00:33;;;;;;;;;;;;;;;31.05;38.45;100178.88;4316301;33;34672;-86
2021/08/15 05:03:01;;;;;;;;;;;;;;;31.47;37.79;100173.22;4304289;33;34612;-86
2021/08/15 05:05:29;;;;;;;;;;;;;;;30.91;39.10;100178.53;4316145;33;33480;-87
2021/08/15 05:07:56;;;;;;;;;;;;;;;30.88;39.33;100183.41;4316339;33;34727;-86
2021/08/15 05:10:24;;;;;;;;;;;;;;;31.36;38.20;100176.25;4316116;33;33912;-87
2021/08/15 05:12:52;;;;;;;;;;;;;;;31.04;38.91;100172.63;4316289;33;33840;-86
2021/08/15 05:15:19;;;;;;;;;;;;;;;31.13;38.90;100178.84;4316240;33;32656;-87
2021/08/15 05:17:47;;;;;;;;;;;;;;;31.51;38.25;100187.16;4316258;33;33821;-86
2021/08/15 05:20:15;;;;;;;;;;;;;;;31.32;38.62;100180.31;4304297;33;34030;-87
2021/08/15 05:22:42;;;;;;;;;;;;;;;31.58;37.91;100174.69;4303928;33;34480;-86
2021/08/15 05:25:10;;;;;;;;;;;;;;;31.95;37.27;100180.44;4303849;33;32297;-86
2021/08/15 05:27:38;;;;;;;;;;;;;;;31.98;37.18;100182.78;4316473;33;35004;-86
2021/08/15 05:30:05;;;;;;;;;;;;;;;32.08;37.12;100179.84;4304057;33;33530;-86
2021/08/15 05:32:35;;;;;;;;;;;;;;;32.37;36.62;100181.88;4303881;33;35187;-87
2021/08/15 05:35:03;;;;;;;;;;;;;;;32.58;36.29;100181.22;4316016;33;34485;-86
2021/08/15 05:37:30;;;;;;;;;;;;;;;32.47;36.76;100178.97;4315996;33;34597;-87
2021/08/15 05:39:58;;;;;;;;;;;;;;;32.62;36.65;100181.72;4312846;33;34335;-86
2021/08/15 05:42:25;;;;;;;;;;;;;;;32.42;37.06;100181.38;4314043;33;35986;-86
2021/08/15 05:44:52;;;;;;;;;;;;;;;32.53;36.91;100183.63;4303432;33;34025;-87
2021/08/15 05:47:20;;;;;;;;;;;;;;;32.39;37.17;100181.72;4315867;33;35256;-86
2021/08/15 05:49:48;;;;;;;;;;;;;;;32.18;37.57;100188.59;4316095;33;35251;-86
2021/08/15 05:52:15;;;;;;;;;;;;;;;32.33;37.31;100195.91;4303524;33;35036;-86
2021/08/15 05:54:43;;;;;;;;;;;;;;;32.16;37.85;100197.84;4315920;33;34240;-86
2021/08/15 05:57:10;;;;;;;;;;;;;;;31.90;38.74;100193.63;4315718;33;34560;-86
2021/08/15 05:59:38;;;;;;;;;;;;;;;31.94;38.54;100198.47;4316069;33;34327;-88
2021/08/15 06:02:05;;;;;;;;;;;;;;;32.17;37.58;100194.16;4315446;33;34745;-85
2021/08/15 06:04:33;;;;;;;;;;;;;;;32.20;37.68;100189.25;4315934;33;33525;-86
2021/08/15 06:07:01;;;;;;;;;;;;;;;32.49;37.22;100193.09;4303914;33;34214;-87
2021/08/15 06:09:28;;;;;;;;;;;;;;;33.12;36.14;100201.00;4315490;33;35634;-86
2021/08/15 06:11:56;;;;;;;;;;;;;;;32.82;36.63;100197.44;4315775;33;34858;-86
2021/08/15 06:14:23;;;;;;;;;;;;;;;33.24;35.68;100188.75;4315677;33;33486;-87
2021/08/15 06:16:51;;;;;;;;;;;;;;;33.24;35.59;100193.28;4303695;33;33304;-87
2021/08/15 06:19:18;;;;;;;;;;;;;;;33.47;35.29;100193.25;4303608;33;34182;-87
2021/08/15 06:21:48;;;;;;;;;;;;;;;33.65;34.69;100198.25;4315260;33;35035;-86
2021/08/15 06:24:15;;;;;;;;;;;;;;;34.02;33.97;100192.94;4315650;33;33150;-87
2021/08/15 06:26:43;;;;;;;;;;;;;;;33.37;35.14;100195.41;4303628;33;34610;-86
2021/08/15 06:29:10;;;;;;;;;;;;;;;33.90;34.13;100196.13;4315891;33;34890;-86
2021/08/15 06:31:37;;;;;;;;;;;;;;;33.94;34.02;100194.69;4303265;33;35482;-86
2021/08/15 06:34:06;;;;;;;;;;;;;;;34.56;32.93;100195.19;4315528;33;34002;-87
2021/08/15 06:36:33;;;;;;;;;;;;;;;34.20;33.58;100195.19;4303402;33;35036;-86
2021/08/15 06:39:00;;;;;;;;;;;;;;;34.49;33.03;100199.72;4303360;33;37377;-87
2021/08/15 06:41:28;;;;;;;;;;;;;;;34.49;33.20;100197.00;4302270;33;33510;-86
2021/08/15 06:43:55;;;;;;;;;;;;;;;34.68;32.58;100187.38;4303899;33;33557;-87
2021/08/15 06:46:23;;;;;;;;;;;;;;;34.61;32.64;100187.31;4315105;33;34624;-87
2021/08/15 06:48:51;;;;;;;;;;;;;;;34.98;32.13;100181.81;4303918;33;33686;-87
2021/08/15 06:51:18;;;;;;;;;;;;;;;35.37;31.49;100180.44;4315051;33;34958;-87
2021/08/15 06:53:46;;;;;;;;;;;;;;;35.31;31.83;100177.66;4315358;33;32568;-86
2021/08/15 06:56:13;;;;;;;;;;;;;;;34.61;33.07;100181.91;4315545;33;34281;-87
2021/08/15 06:58:41;;;;;;;;;;;;;;;34.87;32.65;100174.25;4303198;33;36097;-86
2021/08/15 07:01:08;;;;;;;;;;;;;;;35.00;32.58;100181.62;4315512;33;35375;-88
2021/08/15 07:03:36;;;;;;;;;;;;;;;35.21;32.30;100186.97;4303308;33;34219;-85
2021/08/15 07:06:06;;;;;;;;;;;;;;;35.08;32.44;100182.31;4315367;33;37201;-87
2021/08/15 07:08:33;;;;;;;;;;;;;;;35.90;31.15;100179.00;4315367;33;34790;-87
2021/08/15 07:11:01;;;;;;;;;;;;;;;36.10;30.84;100182.63;4315588;33;33361;-87
2021/08/15 07:13:29;;;;;;;;;;;;;;;36.19;30.67;100177.88;4315380;33;32925;-87
2021/08/15 07:15:56;;;;;;;;;;;;;;;35.33;32.08;100179.16;4315295;33;33412;-87
2021/08/15 07:18:24;;;;;;;;;;;;;;;36.10;30.89;100174.50;4315309;33;34671;-86
2021/08/15 07:20:57;;;;;;;;;;;;;;;36.41;30.37;100177.72;4315301;33;34341;-87
2021/08/15 07:23:25;;;;;;;;;;;;;;;36.70;29.92;100176.47;4315450;33;33715;-87
2021/08/15 07:25:52;;;;;;;;;;;;;;;36.65;30.26;100170.84;4315312;33;36022;-87
2021/08/15 07:28:19;;;;;;;;;;;;;;;36.72;30.17;100171.66;4303224;33;34142;-87
2021/08/15 07:30:47;;;;;;;;;;;;;;;36.95;29.89;100173.16;4303003;33;36634;-87
2021/08/15 07:33:15;;;;;;;;;;;;;;;36.90;29.74;100171.06;4315296;33;34096;-87
2021/08/15 07:35:42;;;;;;;;;;;;;;;36.58;30.20;100167.31;4315350;33;34479;-86
2021/08/15 07:38:10;;;;;;;;;;;;;;;36.89;29.71;100166.66;4315731;33;33417;-86
2021/08/15 07:40:38;;;;;;;;;;;;;;;37.34;29.10;100165.16;4314503;33;33200;-87
2021/08/15 07:43:05;;;;;;;;;;;;;;;37.43;29.03;100169.31;4303215;33;32157;-87
2021/08/15 07:45:33;;;;;;;;;;;;;;;37.14;29.55;100170.59;4315181;33;33933;-87
2021/08/15 07:48:01;;;;;;;;;;;;;;;36.90;30.05;100164.81;4315057;33;34545;-86
2021/08/15 07:50:34;;;;;;;;;;;;;;;36.85;30.00;100165.44;4314775;33;34260;-87
2021/08/15 07:53:20;;;;;;;;;;;;;;;37.12;29.58;100164.56;4303019;33;32942;-87
2021/08/15 07:55:48;;;;;;;;;;;;;;;36.71;30.33;100163.72;4315134;33;34308;-87
2021/08/15 07:58:16;;;;;;;;;;;;;;;37.57;29.03;100162.75;4274466;33;923033;-88
2021/08/15 08:00:44;;;;;;;;;;;;;;;37.74;28.66;100159.56;4290707;33;33021;-87
2021/08/15 08:03:13;;;;;;;;;;;;;;;37.24;29.47;100152.84;4314778;33;34106;-87
2021/08/15 08:05:41;;;;;;;;;;;;;;;37.92;28.43;100151.56;4302957;33;35475;-88
2021/08/15 08:08:09;;;;;;;;;;;;;;;36.96;29.96;100138.69;4315040;33;34081;-87
2021/08/15 08:10:37;;;;;;;;;;;;;;;37.84;28.60;100146.38;4302286;33;34197;-87
2021/08/15 08:13:08;;;;;;;;;;;;;;;38.19;28.00;100137.78;4315317;33;34043;-87
2021/08/15 08:15:37;;;;;;;;;;;;;;;38.22;27.74;100136.50;4314664;33;35028;-87
2021/08/15 08:18:05;;;;;;;;;;;;;;;38.35;27.33;100141.87;4302830;33;36150;-87
2021/08/15 08:20:35;;;;;;;;;;;;;;;38.57;26.79;100138.75;4302438;33;35361;-86
2021/08/15 08:23:04;;;;;;;;;;;;;;;37.68;26.66;100139.53;4314712;33;33722;-87
2021/08/15 08:25:32;;;;;;;;;;;;;;;37.51;26.39;100139.19;4314805;33;34712;-87
2021/08/15 08:27:59;;;;;;;;;;;;;;;36.63;27.68;100139.53;4302392;33;32992;-87
2021/08/15 08:30:28;;;;;;;;;;;;;;;36.84;27.52;100127.63;4302446;33;35141;-87
2021/08/15 08:32:56;;;;;;;;;;;;;;;37.18;28.04;100140.09;4314799;33;33739;-86
2021/08/15 08:35:23;;;;;;;;;;;;;;;37.72;26.98;100139.91;4301942;33;32989;-87
2021/08/15 08:37:52;;;;;;;;;;;;;;;37.63;26.67;100127.63;4314407;33;35661;-87
2021/08/15 08:40:19;;;;;;;;;;;;;;;37.76;26.89;100122.97;4310082;33;35926;-87
2021/08/15 08:42:47;;;;;;;;;;;;;;;37.64;27.56;100129.28;4315412;33;33021;-87
2021/08/15 08:45:20;;;;;;;;;;;;;;;38.29;26.24;100123.72;4314569;33;34271;-87
2021/08/15 08:47:48;;;;;;;;;;;;;;;37.23;27.92;100118.56;4314360;33;34371;-87
2021/08/15 08:50:16;;;;;;;;;;;;;;;36.94;28.61;100112.56;4314544;33;32980;-86
2021/08/15 08:52:46;;;;;;;;;;;;;;;36.42;29.38;100120.53;4314305;33;32720;-87
2021/08/15 08:55:14;;;;;;;;;;;;;;;37.38;27.99;100112.06;4314524;33;34691;-87
2021/08/15 08:57:42;;;;;;;;;;;;;;;37.58;28.67;100110.09;4302258;33;33889;-87
2021/08/15 09:00:10;;;;;;;;;;;;;;;37.65;27.86;100103.78;4313990;33;34499;-87
2021/08/15 09:02:37;;;;;;;;;;;;;;;37.56;28.17;100109.47;4315310;33;32425;-87
2021/08/15 09:05:06;;;;;;;;;;;;;;;38.64;26.74;100114.22;4315737;33;34249;-87
2021/08/15 09:07:35;;;;;;;;;;;;;;;37.55;28.49;100121.41;4301988;33;34199;-87
2021/08/15 09:10:03;;;;;;;;;;;;;;;37.62;28.70;100121.34;4302051;33;34120;-87
2021/08/15 09:12:34;;;;;;;;;;;;;;;38.46;27.21;100112.28;4313926;33;34502;-87
2021/08/15 09:15:12;;;;;;;;;;;;;;;37.22;28.75;100116.06;4313818;33;33995;-86
2021/08/15 09:17:40;;;;;;;;;;;;;;;37.69;28.33;100122.16;4315968;33;34256;-87
2021/08/15 09:20:08;;;;;;;;;;;;;;;37.32;28.57;100116.47;4316174;33;34689;-88
2021/08/15 09:22:37;;;;;;;;;;;;;;;37.72;27.65;100110.84;4304046;33;35805;-86
2021/08/15 09:25:12;;;;;;;;;;;;;;;37.93;28.10;100122.47;4316356;33;34300;-87
2021/08/15 09:27:54;;;;;;;;;;;;;;;37.61;28.35;100119.69;4316087;33;35038;-87
2021/08/15 09:30:26;;;;;;;;;;;;;;;37.10;28.47;100122.16;4316703;33;33430;-87
2021/08/15 09:32:55;;;;;;;;;;;;;;;36.63;29.73;100115.91;4303968;33;35052;-87
2021/08/15 09:35:37;;;;;;;;;;;;;;;37.15;29.27;100117.94;4315740;33;36122;-87
2021/08/15 09:38:12;;;;;;;;;;;;;;;37.09;28.76;100106.88;4316526;33;35433;-86
2021/08/15 09:40:40;;;;;;;;;;;;;;;37.76;28.04;100103.94;4303863;33;33671;-87
2021/08/15 09:43:09;;;;;;;;;;;;;;;37.93;27.01;100103.44;4316354;33;33030;-87
2021/08/15 09:45:41;;;;;;;;;;;;;;;37.98;26.44;100100.91;4303783;33;34769;-87
2021/08/15 09:48:26;;;;;;;;;;;;;;;37.79;27.23;100102.69;4303836;33;33488;-86
2021/08/15 09:51:12;;;;;;;;;;;;;;;37.87;26.26;100099.72;4316172;33;34658;-87
2021/08/15 09:53:44;;;;;;;;;;;;;;;37.65;26.33;100090.19;4315886;33;33302;-86
2021/08/15 09:56:12;;;;;;;;;;;;;;;37.10;27.45;100086.03;4316365;33;34640;-86
2021/08/15 09:58:40;;;;;;;;;;;;;;;37.84;26.21;100094.72;4315629;33;34661;-87
2021/08/15 10:01:08;;;;;;;;;;;;;;;38.86;24.91;100087.44;4315922;33;33821;-88
2021/08/15 10:03:37;;;;;;;;;;;;;;;38.66;25.07;100085.69;4303791;33;33779;-87
2021/08/15 10:06:04;;;;;;;;;;;;;;;38.63;24.68;100074.44;4315615;33;33692;-87
2021/08/15 10:08:32;;;;;;;;;;;;;;;38.28;25.40;100064.09;4303835;33;35736;-87
2021/08/15 10:11:00;;;;;;;;;;;;;;;38.44;24.59;100068.97;4315647;33;34338;-87
2021/08/15 10:13:27;;;;;;;;;;;;;;;38.55;24.46;100057.34;4317190;33;33560;-87
2021/08/15 10:15:56;;;;;;;;;;;;;;;38.55;24.43;100061.97;4303823;33;34182;-87
2021/08/15 10:18:26;;;;;;;;;;;;;;;38.71;24.47;100063.31;4315632;33;35474;-87
2021/08/15 10:21:00;;;;;;;;;;;;;;;39.06;24.28;100060.78;4315592;33;35111;-88
2021/08/15 10:23:34;;;;;;;;;;;;;;;39.17;23.17;100056.53;4315546;33;32996;-87
2021/08/15 10:26:02;;;;;;;;;;;;;;;38.48;23.89;100058.47;4315892;33;34742;-87
2021/08/15 10:28:29;;;;;;;;;;;;;;;38.54;23.70;100055.66;4315315;33;35819;-87
2021/08/15 10:30:58;;;;;;;;;;;;;;;37.56;24.90;100057.00;4315700;33;34328;-87
2021/08/15 10:33:26;;;;;;;;;;;;;;;38.23;23.75;100046.50;4315454;33;33864;-87
2021/08/15 10:36:13;;;;;;;;;;;;;;;38.33;23.87;100051.47;4315681;33;33884;-87
2021/08/15 10:38:40;;;;;;;;;;;;;;;37.92;24.14;100056.38;4315963;33;36078;-87
2021/08/15 10:41:11;;;;;;;;;;;;;;;37.85;24.24;100044.72;4310678;33;34311;-87
2021/08/15 10:43:39;;;;;;;;;;;;;;;37.49;24.14;100045.34;4315678;33;34215;-87
2021/08/15 10:46:22;;;;;;;;;;;;;;;38.74;22.67;100032.88;4317040;33;34304;-87
2021/08/15 10:48:55;;;;;;;;;;;;;;;39.33;22.23;100026.94;4315225;33;34738;-87
2021/08/15 10:51:49;;;;;;;;;;;;;;;39.04;22.72;100024.78;4303081;33;34435;-87
2021/08/15 10:54:26;;;;;;;;;;;;;;;37.86;24.15;100029.25;4315768;33;34230;-87
2021/08/15 10:56:54;;;;;;;;;;;;;;;38.64;22.97;100025.22;4317013;33;34776;-87
2021/08/15 10:59:35;;;;;;;;;;;;;;;38.64;23.04;100027.94;4316083;33;35276;-87
2021/08/15 11:02:08;;;;;;;;;;;;;;;38.62;22.88;100021.88;4315665;33;34599;-87
2021/08/15 11:04:36;;;;;;;;;;;;;;;39.69;21.67;100008.84;4315801;33;33702;-87
2021/08/15 11:07:04;;;;;;;;;;;;;;;39.89;21.57;100003.91;4316165;33;36537;-87
2021/08/15 11:09:51;;;;;;;;;;;;;;;40.59;20.35;99998.75;4315462;33;35248;-87
2021/08/15 11:12:18;;;;;;;;;;;;;;;39.97;20.97;100001.91;4314941;33;33554;-87
2021/08/15 11:14:52;;;;;;;;;;;;;;;40.29;21.20;100004.31;4315245;33;35423;-87
2021/08/15 11:17:20;;;;;;;;;;;;;;;40.27;21.09;99992.81;4315061;33;35006;-87
2021/08/15 11:19:47;;;;;;;;;;;;;;;39.85;21.32;99999.16;4303355;33;34769;-87
2021/08/15 11:22:16;;;;;;;;;;;;;;;39.33;21.62;99989.66;4315511;33;33516;-87
2021/08/15 11:24:44;;;;;;;;;;;;;;;39.57;21.59;99996.00;4315367;33;33858;-87
2021/08/15 11:27:12;;;;;;;;;;;;;;;39.90;21.52;99988.38;4315348;33;33881;-87
2021/08/15 11:29:40;;;;;;;;;;;;;;;40.18;21.56;99979.53;4315104;33;35205;-87
2021/08/15 11:32:12;;;;;;;;;;;;;;;41.18;20.15;99984.94;4315097;33;37243;-87
2021/08/15 11:34:53;;;;;;;;;;;;;;;40.81;20.72;99981.69;4314972;33;34140;-87
2021/08/15 11:37:28;;;;;;;;;;;;;;;40.68;20.62;99980.91;4315204;33;34309;-87
2021/08/15 11:39:55;;;;;;;;;;;;;;;40.70;20.48;99981.53;4309056;33;34584;-88
2021/08/15 11:42:24;;;;;;;;;;;;;;;41.63;19.69;99979.72;4299374;33;34966;-87
2021/08/15 11:44:56;;;;;;;;;;;;;;;41.73;17.33;99969.78;4315126;33;34318;-87
2021/08/15 11:47:28;;;;;;;;;;;;;;;40.50;18.33;99968.25;4315394;33;33044;-88
2021/08/15 11:49:55;;;;;;;;;;;;;;;41.76;17.25;99973.94;4315563;33;33331;-88
2021/08/15 11:52:31;;;;;;;;;;;;;;;42.34;16.78;99969.13;4315217;33;35916;-87
2021/08/15 11:54:58;;;;;;;;;;;;;;;42.34;17.02;99965.56;4315161;33;33122;-87
2021/08/15 11:57:26;;;;;;;;;;;;;;;42.18;17.03;99959.03;4302924;33;35740;-87
2021/08/15 12:00:04;;;;;;;;;;;;;;;42.12;17.15;99969.03;4302970;33;35132;-87
2021/08/15 12:02:37;;;;;;;;;;;;;;;42.24;17.08;99965.41;4303505;33;34346;-87
2021/08/15 12:05:06;;;;;;;;;;;;;;;42.00;17.24;99960.12;4315362;33;34322;-87
2021/08/15 12:07:33;;;;;;;;;;;;;;;42.30;17.09;99959.75;4315804;33;34852;-87
2021/08/15 12:10:20;;;;;;;;;;;;;;;42.53;16.86;99957.88;4303069;33;33660;-87
2021/08/15 12:13:07;;;;;;;;;;;;;;;42.52;16.91;99962.53;4314776;33;34655;-87
2021/08/15 12:15:34;;;;;;;;;;;;;;;42.29;17.12;99957.28;4314946;33;34175;-87
2021/08/15 12:18:03;;;;;;;;;;;;;;;42.24;17.24;99957.19;4315193;33;34987;-87
2021/08/15 12:20:30;;;;;;;;;;;;;;;42.79;16.57;99949.97;4302669;33;34893;-87
2021/08/15 12:23:05;;;;;;;;;;;;;;;42.86;16.56;99948.69;4314685;33;34389;-87
2021/08/15 12:25:32;;;;;;;;;;;;;;;42.72;16.53;99941.94;4302949;33;35054;-87
2021/08/15 12:28:10;;;;;;;;;;;;;;;43.10;16.30;99945.69;4314901;33;36312;-87
2021/08/15 12:30:38;;;;;;;;;;;;;;;43.15;16.28;99936.69;4314798;33;33962;-87
2021/08/15 12:33:25;;;;;;;;;;;;;;;42.98;16.43;99929.38;4314677;33;34597;-87
2021/08/15 12:35:53;;;;;;;;;;;;;;;42.65;16.71;99933.94;4314377;33;34169;-88
2021/08/15 12:38:29;;;;;;;;;;;;;;;42.01;17.10;99923.47;4302853;33;36109;-88
2021/08/15 12:41:17;;;;;;;;;;;;;;;42.03;17.01;99927.63;4311821;33;33709;-86
2021/08/15 12:44:03;;;;;;;;;;;;;;;42.29;16.86;99917.03;4309650;33;35760;-87
2021/08/15 12:46:31;;;;;;;;;;;;;;;41.98;17.07;99913.03;4312394;33;35915;-87
2021/08/15 12:48:58;;;;;;;;;;;;;;;42.35;16.69;99904.22;4314206;33;34976;-87